Time;durP1;ratioP1;P1;durP2;ratioP2;P2;SDS_P1;SDS_P2;PMS_P1;PMS_P2;Temp;Humidity;BMP_temperature;BMP_pressure;BME280_temperature;BME280_humidity;BME280_pressure;Samples;Min_cycle;Max_cycle;Signal;HPM_P1;HPM_P2
2021/03/26 00:04:32;;;;;;;221.60;95.30;;;;;;;-1.07;74.97;99574.30;4148398;84;21203;-89
2021/03/26 00:10:35;;;;;;;207.13;91.07;;;;;;;-1.11;75.01;99579.97;4061299;86;21736;-88
2021/03/26 00:16:37;;;;;;;226.57;95.57;;;;;;;-1.09;75.17;99574.30;4149067;84;21658;-90
2021/03/26 00:22:39;;;;;;;213.87;94.40;;;;;;;-1.06;75.13;99582.61;4176884;83;21204;-89
2021/03/26 00:28:41;;;;;;;201.57;91.70;;;;;;;-0.97;75.08;99584.14;4175850;83;21153;-89
2021/03/26 00:34:42;;;;;;;224.40;98.40;;;;;;;-1.12;74.85;99581.06;4176156;83;21866;-90
2021/03/26 00:40:44;;;;;;;228.13;96.67;;;;;;;-1.14;75.36;99576.50;4178468;82;21201;-91
2021/03/26 00:46:45;;;;;;;219.80;97.30;;;;;;;-1.23;75.58;99566.66;4175942;83;21208;-90
2021/03/26 00:52:48;;;;;;;192.60;85.67;;;;;;;-1.26;75.19;99565.35;4180915;83;21217;-90
2021/03/26 00:58:50;;;;;;;206.70;91.27;;;;;;;-1.42;75.63;99569.27;4171688;83;21632;-90
2021/03/26 01:04:52;;;;;;;228.27;96.17;;;;;;;-1.41;75.80;99562.83;4186082;85;21216;-91
2021/03/26 01:10:59;;;;;;;206.23;91.43;;;;;;;-1.39;76.21;99558.52;4189760;85;21201;-90
2021/03/26 01:17:05;;;;;;;201.00;82.17;;;;;;;-1.42;75.88;99559.05;4190371;84;21267;-90
2021/03/26 01:23:08;;;;;;;190.40;84.67;;;;;;;-1.44;76.36;99559.34;4156359;83;21209;-90
2021/03/26 01:29:12;;;;;;;229.90;98.60;;;;;;;-1.42;76.30;99560.39;4178643;84;21613;-89
2021/03/26 01:35:21;;;;;;;229.40;100.27;;;;;;;-1.36;76.29;99561.41;4077064;86;21600;-90
2021/03/26 01:41:29;;;;;;;229.60;98.03;;;;;;;-1.50;76.16;99564.50;4178559;84;21240;-89
2021/03/26 01:47:30;;;;;;;228.03;97.87;;;;;;;-1.60;76.66;99568.08;4110096;85;21214;-90
2021/03/26 01:53:32;;;;;;;199.37;84.03;;;;;;;-1.59;76.98;99558.14;4148988;84;21385;-90
2021/03/26 01:59:35;;;;;;;198.17;84.10;;;;;;;-1.74;76.40;99566.34;4107490;85;21357;-88
2021/03/26 02:05:37;;;;;;;185.33;74.37;;;;;;;-1.88;76.61;99569.40;4179205;84;21545;-88
2021/03/26 02:12:39;;;;;;;180.97;76.97;;;;;;;-1.68;77.43;99574.61;4503765;77;26606;-85
2021/03/26 02:19:09;;;;;;;207.50;86.67;;;;;;;-1.52;77.41;99577.96;4419998;78;21173;-86
2021/03/26 02:25:45;;;;;;;211.53;86.13;;;;;;;-1.55;76.80;99585.23;4288442;80;22384;-84
2021/03/26 02:32:52;;;;;;;237.93;92.63;;;;;;;-1.70;76.87;99599.05;4351244;80;21192;-84
2021/03/26 03:13:03;;;;;;;208.13;88.80;;;;;;;-1.70;77.68;99595.55;4410922;79;21159;-82
2021/03/26 03:19:35;;;;;;;186.80;77.53;;;;;;;-1.80;77.33;99607.16;4395358;79;22229;-82
2021/03/26 03:25:54;;;;;;;199.77;83.07;;;;;;;-1.72;77.78;99615.96;4394137;78;21745;-82
2021/03/26 03:32:31;;;;;;;183.63;82.47;;;;;;;-1.69;77.63;99611.38;4426476;78;21206;-82
2021/03/26 03:39:05;;;;;;;204.73;87.80;;;;;;;-1.78;77.42;99599.64;4178706;81;29239;-84
2021/03/26 03:45:43;;;;;;;183.77;76.80;;;;;;;-1.99;77.42;99600.84;4407035;79;22952;-82
2021/03/26 03:51:58;;;;;;;188.57;76.93;;;;;;;-2.10;77.84;99605.23;4333602;80;21141;-82
2021/03/26 03:58:45;;;;;;;;;;;;;;;;;;;;;
2021/03/26 05:54:01;;;;;;;167.87;74.43;;;;;;;-0.54;80.06;99646.27;4221909;80;21634;-87
2021/03/26 06:00:46;;;;;;;173.27;75.57;;;;;;;-0.18;79.81;99652.30;4386145;79;23502;-84
2021/03/26 06:07:43;;;;;;;192.50;84.77;;;;;;;0.05;79.55;99649.28;4296855;80;21328;-85
2021/03/26 06:14:39;;;;;;;178.27;78.13;;;;;;;0.39;79.58;99659.31;4340809;81;21259;-84
2021/03/26 06:21:43;;;;;;;139.90;77.40;;;;;;;0.98;79.74;99659.42;4534539;75;28848;-85
2021/03/26 06:28:34;;;;;;;144.60;66.30;;;;;;;1.69;79.39;99662.95;4444591;79;23267;-85
2021/03/26 06:35:15;;;;;;;;;;;;;;;2.01;79.62;99668.73;4390492;80;21196;-86
2021/03/26 06:41:26;;;;;;;142.95;67.62;;;;;;;2.43;80.08;99672.39;4378779;80;20589;-87
2021/03/26 06:48:08;;;;;;;144.65;69.55;;;;;;;2.87;79.83;99665.12;4386438;80;21608;-87
2021/03/26 06:54:50;;;;;;;133.67;62.13;;;;;;;3.36;80.11;99669.55;4279189;80;32253;-87
2021/03/26 07:01:33;;;;;;;119.50;59.38;;;;;;;3.77;79.22;99669.23;4199989;83;31192;-89
2021/03/26 07:08:24;;;;;;;112.83;56.48;;;;;;;4.14;78.93;99672.74;4233464;81;21344;-88
2021/03/26 07:14:44;;;;;;;110.42;53.92;;;;;;;4.64;78.86;99663.06;4199258;83;21247;-87
2021/03/26 07:29:31;;;;;;;107.27;54.03;;;;;;;5.95;77.96;99662.86;4068533;86;21146;-88
2021/03/26 08:03:44;;;;;;;104.90;54.75;;;;;;;8.68;74.65;99690.48;4076782;85;21165;-89
2021/03/26 08:17:21;;;;;;;95.75;51.92;;;;;;;9.90;73.02;99690.31;4066229;85;21363;-90
2021/03/26 08:23:43;;;;;;;97.05;52.98;;;;;;;10.66;71.86;99698.78;4067658;85;21214;-89
2021/03/26 08:30:04;;;;;;;87.45;50.38;;;;;;;11.20;70.61;99700.68;4069741;85;21359;-89
2021/03/26 08:36:38;;;;;;;94.10;49.63;;;;;;;11.75;69.99;99703.70;4069918;85;21352;-88
2021/03/26 08:42:55;;;;;;;87.78;48.10;;;;;;;12.26;67.44;99693.18;4484604;77;22977;-88
2021/03/26 08:49:26;;;;;;;85.65;46.18;;;;;;;12.65;68.03;99700.03;4447156;78;21150;-90
2021/03/26 08:55:51;;;;;;;75.57;45.67;;;;;;;13.12;67.84;99705.79;4446923;79;21174;-89
2021/03/26 09:02:07;;;;;;;83.47;49.27;;;;;;;13.34;66.66;99704.07;4381889;78;21606;-89
2021/03/26 09:08:24;;;;;;;84.60;49.13;;;;;;;13.95;65.65;99708.42;4448380;78;21154;-90
2021/03/26 09:14:51;;;;;;;80.10;46.10;;;;;;;14.34;64.10;99695.79;4397449;78;21349;-90
2021/03/26 09:21:18;;;;;;;;;;;;;;;14.98;62.88;99699.70;4446108;78;21169;-89
2021/03/26 09:27:39;;;;;;;71.22;44.77;;;;;;;15.75;60.13;99705.49;4446987;78;20186;-90
2021/03/26 09:34:04;;;;;;;71.10;45.40;;;;;;;16.27;60.92;99696.42;4451062;78;21599;-90
2021/03/26 09:40:36;;;;;;;73.80;47.03;;;;;;;17.10;59.88;99689.15;4438277;78;21362;-89
2021/03/26 09:46:57;;;;;;;78.75;48.70;;;;;;;17.24;57.27;99690.47;4450068;78;21157;-89
2021/03/26 09:52:59;;;;;;;70.10;44.88;;;;;;;17.34;57.11;99686.69;4448478;78;21321;-91
2021/03/26 09:59:38;;;;;;;70.03;46.88;;;;;;;17.44;55.85;99681.13;4443200;78;21938;-91
2021/03/26 10:06:06;;;;;;;69.67;45.48;;;;;;;17.76;53.10;99685.08;4443879;79;21173;-91
2021/03/26 10:12:28;;;;;;;71.25;46.68;;;;;;;18.31;51.14;99675.52;4449600;78;21222;-91
2021/03/26 10:18:38;;;;;;;71.57;48.17;;;;;;;18.39;48.84;99665.97;4440460;78;21126;-90
2021/03/26 10:24:43;;;;;;;63.15;43.63;;;;;;;18.34;48.30;99658.66;4443529;79;21126;-90
2021/03/26 10:31:08;;;;;;;60.48;42.35;;;;;;;18.54;49.62;99656.30;4448976;78;21351;-90
2021/03/26 10:37:35;;;;;;;59.35;40.58;;;;;;;18.88;48.57;99658.31;4443741;78;21579;-91
2021/03/26 10:43:53;;;;;;;64.80;41.83;;;;;;;19.51;48.35;99647.17;4444508;79;21151;-90
2021/03/26 10:50:11;;;;;;;58.38;40.08;;;;;;;20.09;46.97;99650.06;4440739;78;21137;-90
2021/03/26 10:56:37;;;;;;;55.40;38.53;;;;;;;20.37;43.43;99644.63;4450473;78;21124;-91
2021/03/26 11:03:02;;;;;;;52.08;37.53;;;;;;;20.01;43.82;99642.42;4449173;78;21194;-90
2021/03/26 11:09:07;;;;;;;49.88;35.08;;;;;;;20.46;42.84;99633.73;4425642;78;21197;-90
2021/03/26 11:15:29;;;;;;;52.10;35.90;;;;;;;20.65;43.16;99629.59;4429266;79;21163;-91
2021/03/26 11:21:45;;;;;;;46.65;35.33;;;;;;;20.80;42.89;99625.30;4452999;78;21614;-90
2021/03/26 11:27:51;;;;;;;49.30;37.28;;;;;;;21.04;41.47;99624.05;4447591;78;21142;-90
2021/03/26 11:34:26;;;;;;;50.92;35.25;;;;;;;20.94;41.00;99620.08;4447363;78;21147;-91
2021/03/26 11:40:48;;;;;;;50.43;35.55;;;;;;;20.73;41.43;99607.38;4439746;79;21163;-90
2021/03/26 11:46:55;;;;;;;46.80;34.88;;;;;;;20.99;40.83;99601.48;4450699;78;21170;-88
2021/03/26 11:53:17;;;;;;;45.48;34.00;;;;;;;20.29;39.46;99605.05;4451420;78;21161;-90
2021/03/26 11:59:40;;;;;;;48.20;36.03;;;;;;;19.94;38.36;99598.09;4450870;78;21199;-90
2021/03/26 12:06:24;;;;;;;46.92;33.38;;;;;;;19.39;36.46;99597.78;4446295;79;21145;-90
2021/03/26 12:12:33;;;;;;;51.15;34.43;;;;;;;18.72;35.21;99589.55;4447965;78;21147;-90
2021/03/26 12:18:55;;;;;;;50.75;35.10;;;;;;;18.18;35.58;99579.46;4370256;80;21196;-89
2021/03/26 12:25:39;;;;;;;46.75;33.05;;;;;;;18.25;36.21;99573.83;4048574;81;88436;-90
2021/03/26 12:31:54;;;;;;;49.05;32.75;;;;;;;18.11;36.70;99572.00;4069685;87;21366;-89
2021/03/26 12:38:39;;;;;;;51.45;34.75;;;;;;;18.14;37.48;99562.06;4068048;87;21211;-90
2021/03/26 12:44:56;;;;;;;53.08;33.25;;;;;;;18.12;36.02;99558.94;4081707;85;103730;-89
2021/03/26 12:51:02;;;;;;;40.87;26.50;;;;;;;17.80;36.34;99548.75;4085136;85;21692;-89
2021/03/26 12:57:24;;;;;;;47.97;31.00;;;;;;;17.95;36.23;99546.83;4100990;85;100756;-89
2021/03/26 13:03:58;;;;;;;40.90;27.62;;;;;;;17.69;36.82;99532.25;4111975;85;21200;-89
2021/03/26 13:10:39;;;;;;;41.95;27.15;;;;;;;17.65;37.00;99530.09;4195779;83;21204;-90
2021/03/26 13:16:52;;;;;;;44.77;30.85;;;;;;;17.55;37.17;99531.57;4192681;83;21176;-89
2021/03/26 13:22:58;;;;;;;51.60;29.80;;;;;;;17.67;36.66;99525.52;4198445;82;21182;-89
2021/03/26 13:29:25;;;;;;;44.20;28.90;;;;;;;17.69;37.10;99518.41;4587874;75;22941;-90
2021/03/26 13:35:33;;;;;;;32.00;21.93;;;;;;;17.55;37.05;99519.91;4489890;78;21165;-89
2021/03/26 13:42:06;;;;;;;35.80;23.83;;;;;;;17.44;37.16;99522.54;4494196;78;21616;-90
2021/03/26 13:48:15;;;;;;;37.42;26.12;;;;;;;17.47;37.28;99513.45;4483795;78;21289;-89
2021/03/26 13:54:22;;;;;;;38.92;26.33;;;;;;;17.55;37.18;99507.45;4494792;78;21187;-89
2021/03/26 14:00:29;;;;;;;38.08;25.95;;;;;;;17.37;37.01;99504.63;4490638;78;21109;-89
2021/03/26 14:06:57;;;;;;;39.48;27.05;;;;;;;17.29;37.15;99499.72;4482596;78;21286;-88
2021/03/26 14:13:01;;;;;;;40.98;26.30;;;;;;;17.04;36.37;99494.38;4485067;78;21165;-89
2021/03/26 14:19:08;;;;;;;39.03;25.88;;;;;;;16.77;36.05;99487.06;4488795;78;21175;-89
2021/03/26 14:25:27;;;;;;;40.67;26.45;;;;;;;16.71;37.20;99489.45;4492698;78;21153;-89
2021/03/26 14:31:46;;;;;;;41.75;26.73;;;;;;;16.92;37.56;99479.66;4503546;78;21141;-88
2021/03/26 14:37:56;;;;;;;38.20;26.25;;;;;;;16.93;37.01;99472.12;4328081;79;1248696;-88
2021/03/26 14:44:21;;;;;;;44.08;26.37;;;;;;;16.69;36.74;99468.94;4300793;82;21184;-88
2021/03/26 14:50:24;;;;;;;43.98;27.13;;;;;;;16.69;37.11;99463.41;4286456;82;21794;-89
2021/03/26 14:56:35;;;;;;;37.65;24.25;;;;;;;16.60;36.98;99463.08;4298470;82;21229;-89
2021/03/26 15:02:49;;;;;;;42.50;27.07;;;;;;;16.56;37.62;99463.67;4283468;82;21144;-87
2021/03/26 15:09:02;;;;;;;53.58;33.35;;;;;;;16.53;37.53;99465.87;4302030;82;21322;-90
2021/03/26 15:16:05;;;;;;;51.58;32.80;;;;;;;16.32;37.96;99454.91;4303054;82;21849;-88
2021/03/26 15:22:55;;;;;;;49.90;30.85;;;;;;;16.20;38.34;99452.57;4193622;85;21221;-87
2021/03/26 15:29:01;;;;;;;53.50;30.45;;;;;;;16.00;38.51;99451.47;4156952;84;21431;-87
2021/03/26 15:35:23;;;;;;;49.40;30.30;;;;;;;15.73;38.58;99446.22;4148928;84;21187;-88
2021/03/26 15:41:52;;;;;;;46.55;29.92;;;;;;;15.48;39.06;99446.27;4149739;84;21354;-88
2021/03/26 16:13:15;;;;;;;50.85;29.25;;;;;;;14.71;40.31;99433.82;4389384;79;21869;-86
2021/03/26 16:27:05;;;;;;;57.73;33.28;;;;;;;14.29;41.43;99436.48;4399838;79;21707;-86
2021/03/26 16:33:30;;;;;;;53.23;28.77;;;;;;;14.08;42.07;99444.04;4384636;79;21172;-87
2021/03/26 16:39:46;;;;;;;50.58;29.90;;;;;;;13.78;42.23;99441.54;4402438;79;21836;-87
2021/03/26 17:24:25;;;;;;;108.15;56.37;;;;;;;11.91;45.16;99440.20;4384523;79;22657;-87
2021/03/26 17:30:53;;;;;;;;;;;;;;;;;;;;;
2021/03/26 17:48:06;;;;;;;105.55;55.75;;;;;;;11.06;47.03;99438.95;4405487;78;23003;-95
2021/03/26 17:54:21;;;;;;;124.90;64.30;;;;;;;10.92;46.87;99444.20;4331210;80;21187;-95
2021/03/26 18:00:40;;;;;;;89.87;48.90;;;;;;;10.51;47.32;99451.87;4338044;80;21163;-96
2021/03/26 18:07:07;;;;;;;102.32;51.75;;;;;;;9.90;47.68;99452.98;4334041;80;21220;-96
2021/03/26 18:13:56;;;;;;;158.25;81.50;;;;;;;9.57;48.61;99463.58;4336659;80;21317;-95
2021/03/26 18:32:35;;;;;;;97.78;56.08;;;;;;;9.46;51.61;99476.42;4416192;78;22677;-91
2021/03/26 18:38:48;;;;;;;130.93;68.70;;;;;;;9.16;51.32;99480.00;4340220;80;21407;-91
2021/03/26 18:45:17;;;;;;;132.45;68.83;;;;;;;8.78;51.67;99481.17;4346969;80;21217;-88
2021/03/26 18:51:46;;;;;;;134.30;74.87;;;;;;;8.34;52.15;99476.87;4341045;80;21260;-89
2021/03/26 18:58:19;;;;;;;140.90;77.78;;;;;;;7.97;52.87;99476.20;4332658;80;22600;-90
2021/03/26 19:04:44;;;;;;;144.22;75.97;;;;;;;7.78;53.51;99479.53;4346305;80;21235;-89
2021/03/26 19:11:35;;;;;;;157.72;86.42;;;;;;;7.54;54.21;99476.07;4342935;80;21233;-90
2021/03/26 19:17:41;;;;;;;144.30;73.22;;;;;;;7.24;54.81;99478.26;4316016;80;21687;-91
2021/03/26 19:24:02;;;;;;;140.92;73.87;;;;;;;6.99;55.12;99471.22;4170525;83;21200;-93
2021/03/26 19:30:21;;;;;;;155.32;79.87;;;;;;;6.68;55.62;99469.60;4233550;83;21622;-92
2021/03/26 19:36:46;;;;;;;158.07;80.05;;;;;;;6.52;56.37;99474.65;4225493;83;21836;-90
2021/03/26 19:43:07;;;;;;;146.15;78.90;;;;;;;6.45;56.53;99480.66;4175504;84;21221;-89
2021/03/26 20:07:47;;;;;;;164.40;87.35;;;;;;;5.67;59.80;99484.36;4216726;76;22396;-89
2021/03/26 20:14:16;;;;;;;172.85;89.85;;;;;;;5.48;59.32;99479.94;4110701;85;21252;-89
2021/03/26 20:20:36;;;;;;;;;;;;;;;;;;;;;
2021/03/26 20:27:08;;;;;;;158.15;82.35;;;;;;;5.15;61.08;99482.53;4584568;75;22973;-89
2021/03/26 20:33:42;;;;;;;144.80;75.37;;;;;;;5.17;60.95;99483.56;4469731;78;21259;-88
2021/03/26 20:40:19;;;;;;;154.87;82.95;;;;;;;5.11;61.22;99480.22;4490842;78;21167;-88
2021/03/26 20:46:32;;;;;;;149.23;82.50;;;;;;;5.11;61.43;99480.77;4487283;78;21128;-87
2021/03/26 20:52:46;;;;;;;166.90;86.05;;;;;;;4.99;61.25;99476.06;4486929;78;21646;-87
2021/03/26 20:58:49;;;;;;;173.78;87.05;;;;;;;4.74;61.90;99478.31;4486253;78;21121;-87
2021/03/26 21:04:56;;;;;;;179.50;87.82;;;;;;;4.47;62.03;99473.29;4497661;78;21159;-86
2021/03/26 21:11:24;;;;;;;192.10;92.65;;;;;;;4.30;62.67;99471.42;4494205;78;21591;-87
2021/03/26 21:17:52;;;;;;;196.95;98.20;;;;;;;4.20;63.09;99467.69;4482319;78;21251;-87
2021/03/26 21:24:03;;;;;;;211.95;100.82;;;;;;;4.12;63.38;99467.72;4477477;78;21161;-87
2021/03/26 21:30:19;;;;;;;202.60;95.85;;;;;;;3.94;63.95;99470.19;4456825;78;21164;-87
2021/03/26 21:36:56;;;;;;;219.60;105.70;;;;;;;3.81;64.42;99465.17;4456824;78;21132;-86
2021/03/26 21:43:25;;;;;;;216.55;110.08;;;;;;;3.80;64.82;99462.78;4456989;78;21845;-86
2021/03/26 21:50:07;;;;;;;222.02;106.12;;;;;;;3.68;65.72;99466.12;4450436;79;22989;-86
2021/03/26 21:56:57;;;;;;;216.15;101.10;;;;;;;3.53;65.28;99466.59;4381706;80;21141;-86
2021/03/26 22:03:42;;;;;;;213.12;106.20;;;;;;;3.36;65.59;99468.48;4383608;80;21220;-86
2021/03/26 22:10:18;;;;;;;225.35;108.97;;;;;;;3.25;65.71;99466.64;4388135;80;21344;-87
2021/03/26 22:16:59;;;;;;;184.75;88.92;;;;;;;3.23;66.12;99462.09;4350817;80;21181;-86
2021/03/26 22:23:35;;;;;;;178.20;87.35;;;;;;;3.06;66.87;99472.87;4348633;80;21160;-87
2021/03/26 22:29:49;;;;;;;137.90;62.40;;;;;;;3.00;67.26;99463.31;4350741;81;21201;-87
2021/03/26 22:36:05;;;;;;;166.80;74.37;;;;;;;2.89;67.77;99468.77;4349541;81;21147;-87
2021/03/26 22:42:25;;;;;;;159.60;74.45;;;;;;;2.81;67.94;99462.77;4345207;81;21206;-87
2021/03/26 22:48:44;;;;;;;162.40;76.53;;;;;;;2.87;68.11;99469.62;4343200;80;21607;-87
2021/03/26 22:55:20;;;;;;;172.93;78.70;;;;;;;2.68;67.95;99467.70;4247441;82;21186;-87
2021/03/26 23:01:26;;;;;;;128.17;57.73;;;;;;;2.47;68.42;99463.97;4185018;83;21190;-87
2021/03/26 23:07:37;;;;;;;165.00;78.78;;;;;;;2.33;68.86;99455.16;4218442;83;21207;-87
2021/03/26 23:13:55;;;;;;;160.97;73.50;;;;;;;2.28;69.20;99452.58;4242708;82;21263;-86
2021/03/26 23:20:02;;;;;;;141.10;68.72;;;;;;;2.06;69.71;99426.94;4180578;83;21654;-86
2021/03/26 23:26:10;;;;;;;;;;;;;;;2.06;69.71;99426.94;4171346;83;21224;-86
2021/03/26 23:32:23;;;;;;;158.00;75.12;;;;;;;2.15;70.59;99439.39;4202322;83;20200;-86
2021/03/26 23:38:34;;;;;;;142.80;68.80;;;;;;;1.92;70.30;99421.63;4316054;80;21178;-87
2021/03/26 23:44:41;;;;;;;157.03;71.82;;;;;;;1.92;70.30;99421.63;4345897;80;21150;-87
2021/03/26 23:51:03;;;;;;;166.25;78.57;;;;;;;1.95;70.25;99431.81;4329178;81;21138;-86
